sensor_id;sensor_type;location;lat;lon;timestamp;pressure;altitude;pressure_sealevel;temperature;humidity
24825;BME280;12910;57.690;11.974;2022-10-16T00:00:34;99613.63;;;12.02;100.00
24825;BME280;12910;57.690;11.974;2022-10-16T00:03:00;99618.75;;;12.00;100.00
24825;BME280;12910;57.690;11.974;2022-10-16T00:05:25;99616.22;;;11.92;100.00
24825;BME280;12910;57.690;11.974;2022-10-16T00:07:51;99604.25;;;11.83;100.00
24825;BME280;12910;57.690;11.974;2022-10-16T00:10:16;99617.06;;;11.88;100.00
24825;BME280;12910;57.690;11.974;2022-10-16T00:12:42;99611.09;;;11.81;100.00
24825;BME280;12910;57.690;11.974;2022-10-16T00:15:07;99616.25;;;11.81;100.00
24825;BME280;12910;57.690;11.974;2022-10-16T00:17:33;99625.69;;;11.81;100.00
24825;BME280;12910;57.690;11.974;2022-10-16T00:19:58;99629.97;;;11.79;100.00
24825;BME280;12910;57.690;11.974;2022-10-16T00:22:24;99629.97;;;11.77;100.00
24825;BME280;12910;57.690;11.974;2022-10-16T00:24:50;99624.84;;;11.71;100.00
24825;BME280;12910;57.690;11.974;2022-10-16T00:27:15;99637.69;;;11.74;100.00
24825;BME280;12910;57.690;11.974;2022-10-16T00:29:42;99641.97;;;11.75;100.00
24825;BME280;12910;57.690;11.974;2022-10-16T00:32:07;99638.53;;;11.73;100.00
24825;BME280;12910;57.690;11.974;2022-10-16T00:34:33;99643.66;;;11.78;100.00
24825;BME280;12910;57.690;11.974;2022-10-16T00:36:58;99650.50;;;11.79;100.00
24825;BME280;12910;57.690;11.974;2022-10-16T00:39:23;99640.25;;;11.77;100.00
24825;BME280;12910;57.690;11.974;2022-10-16T00:41:50;99624.88;;;11.65;100.00
24825;BME280;12910;57.690;11.974;2022-10-16T00:44:42;99642.78;;;11.79;100.00
24825;BME280;12910;57.690;11.974;2022-10-16T00:47:15;99651.34;;;11.78;100.00
24825;BME280;12910;57.690;11.974;2022-10-16T00:49:43;99648.81;;;11.76;100.00
24825;BME280;12910;57.690;11.974;2022-10-16T00:52:09;99636.88;;;11.66;100.00
24825;BME280;12910;57.690;11.974;2022-10-16T00:54:35;99634.28;;;11.69;100.00
24825;BME280;12910;57.690;11.974;2022-10-16T00:57:03;99646.28;;;11.67;100.00
24825;BME280;12910;57.690;11.974;2022-10-16T00:59:33;99626.63;;;11.57;100.00
24825;BME280;12910;57.690;11.974;2022-10-16T01:01:59;99638.63;;;11.58;100.00
24825;BME280;12910;57.690;11.974;2022-10-16T01:04:25;99642.00;;;11.63;100.00
24825;BME280;12910;57.690;11.974;2022-10-16T01:07:05;99627.50;;;11.51;100.00
24825;BME280;12910;57.690;11.974;2022-10-16T01:12:23;99637.75;;;11.52;100.00
24825;BME280;12910;57.690;11.974;2022-10-16T01:18:16;99637.78;;;11.51;100.00
24825;BME280;12910;57.690;11.974;2022-10-16T01:20:54;99630.97;;;11.44;100.00
24825;BME280;12910;57.690;11.974;2022-10-16T01:29:05;99630.97;;;11.37;100.00
24825;BME280;12910;57.690;11.974;2022-10-16T01:31:36;99625.00;;;11.34;100.00
24825;BME280;12910;57.690;11.974;2022-10-16T01:34:14;99614.75;;;11.26;100.00
24825;BME280;12910;57.690;11.974;2022-10-16T01:36:46;99639.56;;;11.33;100.00
24825;BME280;12910;57.690;11.974;2022-10-16T01:39:14;99635.25;;;11.34;100.00
24825;BME280;12910;57.690;11.974;2022-10-16T01:41:51;99631.00;;;11.31;100.00
24825;BME280;12910;57.690;11.974;2022-10-16T01:44:22;99629.31;;;11.26;100.00
24825;BME280;12910;57.690;11.974;2022-10-16T01:46:51;99627.59;;;11.28;100.00
24825;BME280;12910;57.690;11.974;2022-10-16T01:49:18;99623.34;;;11.20;100.00
24825;BME280;12910;57.690;11.974;2022-10-16T01:51:47;99622.47;;;11.20;100.00
24825;BME280;12910;57.690;11.974;2022-10-16T01:54:15;99628.47;;;11.20;100.00
24825;BME280;12910;57.690;11.974;2022-10-16T01:56:43;99625.91;;;11.22;100.00
24825;BME280;12910;57.690;11.974;2022-10-16T01:59:16;99632.72;;;11.21;100.00
24825;BME280;12910;57.690;11.974;2022-10-16T02:01:48;99629.31;;;11.16;100.00
24825;BME280;12910;57.690;11.974;2022-10-16T02:04:37;99632.75;;;11.18;100.00
24825;BME280;12910;57.690;11.974;2022-10-16T02:07:04;99625.03;;;11.12;100.00
24825;BME280;12910;57.690;11.974;2022-10-16T02:09:33;99631.91;;;11.15;100.00
24825;BME280;12910;57.690;11.974;2022-10-16T02:12:03;99635.31;;;11.15;100.00
24825;BME280;12910;57.690;11.974;2022-10-16T02:14:32;99637.88;;;11.14;100.00
24825;BME280;12910;57.690;11.974;2022-10-16T02:16:57;99651.56;;;11.14;100.00
24825;BME280;12910;57.690;11.974;2022-10-16T02:19:23;99649.84;;;11.15;100.00
24825;BME280;12910;57.690;11.974;2022-10-16T02:21:57;99654.13;;;11.14;100.00
24825;BME280;12910;57.690;11.974;2022-10-16T02:24:52;99666.94;;;11.16;100.00
24825;BME280;12910;57.690;11.974;2022-10-16T02:30:21;99673.81;;;11.09;100.00
24825;BME280;12910;57.690;11.974;2022-10-16T02:32:50;99679.75;;;11.11;100.00
24825;BME280;12910;57.690;11.974;2022-10-16T02:35:18;99669.50;;;11.11;100.00
24825;BME280;12910;57.690;11.974;2022-10-16T02:37:46;99678.06;;;11.13;100.00
24825;BME280;12910;57.690;11.974;2022-10-16T02:40:13;99679.75;;;11.14;100.00
24825;BME280;12910;57.690;11.974;2022-10-16T02:42:40;99684.88;;;11.14;100.00
24825;BME280;12910;57.690;11.974;2022-10-16T02:45:08;99684.91;;;11.17;100.00
24825;BME280;12910;57.690;11.974;2022-10-16T02:47:34;99678.06;;;11.16;100.00
24825;BME280;12910;57.690;11.974;2022-10-16T02:49:59;99677.19;;;11.17;100.00
24825;BME280;12910;57.690;11.974;2022-10-16T02:52:25;99663.53;;;11.11;100.00
24825;BME280;12910;57.690;11.974;2022-10-16T02:54:51;99660.97;;;11.07;100.00
24825;BME280;12910;57.690;11.974;2022-10-16T02:57:17;99674.63;;;11.11;100.00
24825;BME280;12910;57.690;11.974;2022-10-16T02:59:43;99678.91;;;11.17;100.00
24825;BME280;12910;57.690;11.974;2022-10-16T03:02:09;99691.72;;;11.21;100.00
24825;BME280;12910;57.690;11.974;2022-10-16T03:04:34;99657.56;;;11.05;100.00
24825;BME280;12910;57.690;11.974;2022-10-16T03:07:00;99678.06;;;11.16;100.00
24825;BME280;12910;57.690;11.974;2022-10-16T03:09:25;99677.19;;;11.22;100.00
24825;BME280;12910;57.690;11.974;2022-10-16T03:11:51;99681.44;;;11.21;100.00
24825;BME280;12910;57.690;11.974;2022-10-16T03:14:17;99672.06;;;11.20;100.00
24825;BME280;12910;57.690;11.974;2022-10-16T03:16:42;99674.63;;;11.22;100.00
24825;BME280;12910;57.690;11.974;2022-10-16T03:19:08;99669.50;;;11.22;100.00
24825;BME280;12910;57.690;11.974;2022-10-16T03:21:33;99675.47;;;11.26;100.00
24825;BME280;12910;57.690;11.974;2022-10-16T03:23:58;99673.75;;;11.25;100.00
24825;BME280;12910;57.690;11.974;2022-10-16T03:26:24;99672.91;;;11.22;100.00
24825;BME280;12910;57.690;11.974;2022-10-16T03:28:49;99654.97;;;11.15;100.00
24825;BME280;12910;57.690;11.974;2022-10-16T03:31:15;99663.53;;;11.18;100.00
24825;BME280;12910;57.690;11.974;2022-10-16T03:33:40;99662.66;;;11.22;100.00
24825;BME280;12910;57.690;11.974;2022-10-16T03:36:05;99669.50;;;11.20;100.00
24825;BME280;12910;57.690;11.974;2022-10-16T03:38:31;99671.22;;;11.14;100.00
24825;BME280;12910;57.690;11.974;2022-10-16T03:40:57;99679.75;;;11.17;100.00
24825;BME280;12910;57.690;11.974;2022-10-16T03:43:22;99668.66;;;11.15;100.00
24825;BME280;12910;57.690;11.974;2022-10-16T03:45:50;99679.75;;;11.17;100.00
24825;BME280;12910;57.690;11.974;2022-10-16T03:48:15;99674.63;;;11.11;100.00
24825;BME280;12910;57.690;11.974;2022-10-16T03:50:41;99669.50;;;11.06;100.00
24825;BME280;12910;57.690;11.974;2022-10-16T03:53:06;99668.66;;;11.06;100.00
24825;BME280;12910;57.690;11.974;2022-10-16T03:55:31;99677.22;;;11.05;100.00
24825;BME280;12910;57.690;11.974;2022-10-16T03:57:57;99664.38;;;11.02;100.00
24825;BME280;12910;57.690;11.974;2022-10-16T04:00:22;99667.81;;;10.98;100.00
24825;BME280;12910;57.690;11.974;2022-10-16T04:02:48;99666.97;;;11.00;100.00
24825;BME280;12910;57.690;11.974;2022-10-16T04:05:13;99678.06;;;10.98;100.00
24825;BME280;12910;57.690;11.974;2022-10-16T04:07:38;99664.41;;;10.85;100.00
24825;BME280;12910;57.690;11.974;2022-10-16T04:10:04;99678.91;;;10.94;100.00
24825;BME280;12910;57.690;11.974;2022-10-16T04:12:30;99674.66;;;10.86;100.00
24825;BME280;12910;57.690;11.974;2022-10-16T04:14:55;99670.38;;;10.87;100.00
24825;BME280;12910;57.690;11.974;2022-10-16T04:17:21;99661.00;;;10.81;100.00
24825;BME280;12910;57.690;11.974;2022-10-16T04:19:46;99676.38;;;10.87;100.00
24825;BME280;12910;57.690;11.974;2022-10-16T04:22:12;99677.22;;;10.86;100.00
24825;BME280;12910;57.690;11.974;2022-10-16T04:24:37;99683.19;;;10.85;100.00
24825;BME280;12910;57.690;11.974;2022-10-16T04:27:03;99684.91;;;10.83;100.00
24825;BME280;12910;57.690;11.974;2022-10-16T04:29:28;99689.19;;;10.86;100.00
24825;BME280;12910;57.690;11.974;2022-10-16T04:31:54;99657.59;;;10.70;100.00
24825;BME280;12910;57.690;11.974;2022-10-16T04:34:19;99678.06;;;10.81;100.00
24825;BME280;12910;57.690;11.974;2022-10-16T04:36:47;99678.06;;;10.81;100.00
24825;BME280;12910;57.690;11.974;2022-10-16T04:39:13;99677.25;;;10.80;100.00
24825;BME280;12910;57.690;11.974;2022-10-16T04:41:38;99690.91;;;10.85;100.00
24825;BME280;12910;57.690;11.974;2022-10-16T04:44:04;99678.94;;;10.81;100.00
24825;BME280;12910;57.690;11.974;2022-10-16T04:46:29;99686.63;;;10.81;100.00
24825;BME280;12910;57.690;11.974;2022-10-16T04:48:54;99678.94;;;10.78;100.00
24825;BME280;12910;57.690;11.974;2022-10-16T04:51:20;99669.53;;;10.74;100.00
24825;BME280;12910;57.690;11.974;2022-10-16T04:53:45;99682.38;;;10.75;100.00
24825;BME280;12910;57.690;11.974;2022-10-16T04:56:11;99683.22;;;10.74;100.00
24825;BME280;12910;57.690;11.974;2022-10-16T04:58:36;99690.06;;;10.71;100.00
24825;BME280;12910;57.690;11.974;2022-10-16T05:01:01;99692.59;;;10.69;100.00
24825;BME280;12910;57.690;11.974;2022-10-16T05:03:27;99693.44;;;10.67;100.00
24825;BME280;12910;57.690;11.974;2022-10-16T05:05:52;99690.88;;;10.68;100.00
24825;BME280;12910;57.690;11.974;2022-10-16T05:08:17;99678.94;;;10.66;100.00
24825;BME280;12910;57.690;11.974;2022-10-16T05:10:44;99678.94;;;10.66;100.00
24825;BME280;12910;57.690;11.974;2022-10-16T05:13:10;99664.41;;;10.58;100.00
24825;BME280;12910;57.690;11.974;2022-10-16T05:15:35;99663.53;;;10.61;100.00
24825;BME280;12910;57.690;11.974;2022-10-16T05:18:01;99677.22;;;10.62;100.00
24825;BME280;12910;57.690;11.974;2022-10-16T05:20:27;99678.94;;;10.63;100.00
24825;BME280;12910;57.690;11.974;2022-10-16T05:22:52;99681.50;;;10.58;100.00
24825;BME280;12910;57.690;11.974;2022-10-16T05:25:17;99684.91;;;10.62;100.00
24825;BME280;12910;57.690;11.974;2022-10-16T05:27:46;99682.34;;;10.62;100.00
24825;BME280;12910;57.690;11.974;2022-10-16T05:30:11;99684.06;;;10.59;100.00
24825;BME280;12910;57.690;11.974;2022-10-16T05:32:37;99686.63;;;10.61;100.00
24825;BME280;12910;57.690;11.974;2022-10-16T05:35:02;99687.47;;;10.65;100.00
24825;BME280;12910;57.690;11.974;2022-10-16T05:37:28;99684.91;;;10.68;100.00
24825;BME280;12910;57.690;11.974;2022-10-16T05:39:53;99683.22;;;10.70;100.00
24825;BME280;12910;57.690;11.974;2022-10-16T05:42:18;99677.22;;;10.62;100.00
24825;BME280;12910;57.690;11.974;2022-10-16T05:44:44;99693.47;;;10.70;100.00
24825;BME280;12910;57.690;11.974;2022-10-16T05:47:10;99684.06;;;10.67;100.00
24825;BME280;12910;57.690;11.974;2022-10-16T05:49:37;99689.19;;;10.67;100.00
24825;BME280;12910;57.690;11.974;2022-10-16T05:52:02;99691.75;;;10.72;100.00
24825;BME280;12910;57.690;11.974;2022-10-16T05:54:28;99691.75;;;10.72;100.00
24825;BME280;12910;57.690;11.974;2022-10-16T05:56:53;99687.47;;;10.69;100.00
24825;BME280;12910;57.690;11.974;2022-10-16T05:59:18;99707.16;;;10.77;100.00
24825;BME280;12910;57.690;11.974;2022-10-16T06:01:44;99706.25;;;10.78;100.00
24825;BME280;12910;57.690;11.974;2022-10-16T06:04:09;99712.28;;;10.81;100.00
24825;BME280;12910;57.690;11.974;2022-10-16T06:06:35;99712.25;;;10.84;100.00
24825;BME280;12910;57.690;11.974;2022-10-16T06:09:02;99705.44;;;10.89;100.00
24825;BME280;12910;57.690;11.974;2022-10-16T06:11:30;99696.88;;;10.90;100.00
24825;BME280;12910;57.690;11.974;2022-10-16T06:13:57;99690.03;;;10.83;100.00
24825;BME280;12910;57.690;11.974;2022-10-16T06:16:24;99708.84;;;10.95;100.00
24825;BME280;12910;57.690;11.974;2022-10-16T06:18:51;99713.97;;;10.96;100.00
24825;BME280;12910;57.690;11.974;2022-10-16T06:21:22;99713.97;;;10.98;100.00
24825;BME280;12910;57.690;11.974;2022-10-16T06:23:50;99713.97;;;11.01;100.00
24825;BME280;12910;57.690;11.974;2022-10-16T06:26:18;99701.16;;;10.96;100.00
24825;BME280;12910;57.690;11.974;2022-10-16T06:28:44;99695.19;;;10.94;100.00
24825;BME280;12910;57.690;11.974;2022-10-16T06:31:11;99706.25;;;11.04;100.00
24825;BME280;12910;57.690;11.974;2022-10-16T06:33:37;99723.38;;;11.10;100.00
24825;BME280;12910;57.690;11.974;2022-10-16T06:36:08;99704.56;;;11.06;100.00
24825;BME280;12910;57.690;11.974;2022-10-16T06:38:35;99719.94;;;11.15;100.00
24825;BME280;12910;57.690;11.974;2022-10-16T06:41:01;99726.78;;;11.13;100.00
24825;BME280;12910;57.690;11.974;2022-10-16T06:43:29;99723.38;;;11.13;100.00
24825;BME280;12910;57.690;11.974;2022-10-16T06:45:58;99725.09;;;11.18;100.00
24825;BME280;12910;57.690;11.974;2022-10-16T06:48:24;99722.50;;;11.15;100.00
24825;BME280;12910;57.690;11.974;2022-10-16T06:51:02;99714.81;;;11.20;100.00
24825;BME280;12910;57.690;11.974;2022-10-16T06:53:30;99711.38;;;11.22;100.00
24825;BME280;12910;57.690;11.974;2022-10-16T06:55:56;99706.25;;;11.22;100.00
24825;BME280;12910;57.690;11.974;2022-10-16T06:58:22;99713.94;;;11.29;100.00
24825;BME280;12910;57.690;11.974;2022-10-16T07:00:48;99704.56;;;11.23;100.00
24825;BME280;12910;57.690;11.974;2022-10-16T07:03:14;99713.09;;;11.27;100.00
24825;BME280;12910;57.690;11.974;2022-10-16T07:05:40;99709.66;;;11.25;100.00
24825;BME280;12910;57.690;11.974;2022-10-16T07:08:06;99715.66;;;11.27;100.00
24825;BME280;12910;57.690;11.974;2022-10-16T07:10:32;99716.53;;;11.29;100.00
24825;BME280;12910;57.690;11.974;2022-10-16T07:12:58;99709.66;;;11.31;100.00
24825;BME280;12910;57.690;11.974;2022-10-16T07:15:25;99693.44;;;11.26;100.00
24825;BME280;12910;57.690;11.974;2022-10-16T07:17:50;99703.66;;;11.35;100.00
24825;BME280;12910;57.690;11.974;2022-10-16T07:20:16;99713.94;;;11.38;100.00
24825;BME280;12910;57.690;11.974;2022-10-16T07:22:41;99701.09;;;11.41;100.00
24825;BME280;12910;57.690;11.974;2022-10-16T07:25:07;99707.06;;;11.43;100.00
24825;BME280;12910;57.690;11.974;2022-10-16T07:27:32;99699.38;;;11.43;100.00
24825;BME280;12910;57.690;11.974;2022-10-16T07:29:58;99699.38;;;11.48;100.00
24825;BME280;12910;57.690;11.974;2022-10-16T07:32:23;99695.94;;;11.46;100.00
24825;BME280;12910;57.690;11.974;2022-10-16T07:34:51;99706.19;;;11.55;100.00
24825;BME280;12910;57.690;11.974;2022-10-16T07:37:16;99701.94;;;11.54;100.00
24825;BME280;12910;57.690;11.974;2022-10-16T07:39:41;99695.91;;;11.60;100.00
24825;BME280;12910;57.690;11.974;2022-10-16T07:42:07;99701.88;;;11.66;100.00
24825;BME280;12910;57.690;11.974;2022-10-16T07:44:32;99701.03;;;11.66;100.00
24825;BME280;12910;57.690;11.974;2022-10-16T07:46:58;99688.19;;;11.66;100.00
24825;BME280;12910;57.690;11.974;2022-10-16T07:49:24;99709.53;;;11.76;100.00
24825;BME280;12910;57.690;11.974;2022-10-16T07:51:49;99707.84;;;11.76;100.00
24825;BME280;12910;57.690;11.974;2022-10-16T07:54:15;99707.00;;;11.77;100.00
24825;BME280;12910;57.690;11.974;2022-10-16T07:56:40;99704.38;;;11.85;100.00
24825;BME280;12910;57.690;11.974;2022-10-16T07:59:05;99694.97;;;11.79;100.00
24825;BME280;12910;57.690;11.974;2022-10-16T08:01:31;99697.53;;;11.90;100.00
24825;BME280;12910;57.690;11.974;2022-10-16T08:03:56;99703.50;;;11.91;100.00
24825;BME280;12910;57.690;11.974;2022-10-16T08:06:22;99696.66;;;11.90;100.00
24825;BME280;12910;57.690;11.974;2022-10-16T08:08:48;99693.22;;;11.91;100.00
24825;BME280;12910;57.690;11.974;2022-10-16T08:11:13;99699.22;;;11.97;100.00
24825;BME280;12910;57.690;11.974;2022-10-16T08:13:40;99701.78;;;12.00;100.00
24825;BME280;12910;57.690;11.974;2022-10-16T08:16:06;99713.75;;;12.06;100.00
24825;BME280;12910;57.690;11.974;2022-10-16T08:18:37;99705.19;;;12.04;100.00
24825;BME280;12910;57.690;11.974;2022-10-16T08:21:03;99684.66;;;12.01;100.00
24825;BME280;12910;57.690;11.974;2022-10-16T08:23:28;99706.88;;;12.14;100.00
24825;BME280;12910;57.690;11.974;2022-10-16T08:25:55;99703.47;;;12.11;100.00
24825;BME280;12910;57.690;11.974;2022-10-16T08:28:22;99718.81;;;12.19;100.00
24825;BME280;12910;57.690;11.974;2022-10-16T08:30:48;99694.88;;;12.17;100.00
24825;BME280;12910;57.690;11.974;2022-10-16T08:33:13;99706.78;;;12.22;100.00
24825;BME280;12910;57.690;11.974;2022-10-16T08:35:39;99706.81;;;12.21;100.00
24825;BME280;12910;57.690;11.974;2022-10-16T08:38:05;99709.34;;;12.27;100.00
24825;BME280;12910;57.690;11.974;2022-10-16T08:40:33;99699.94;;;12.24;100.00
24825;BME280;12910;57.690;11.974;2022-10-16T08:48:20;99704.22;;;12.27;100.00
24825;BME280;12910;57.690;11.974;2022-10-16T08:50:50;99699.97;;;12.23;100.00
24825;BME280;12910;57.690;11.974;2022-10-16T08:53:42;99706.75;;;12.30;100.00
24825;BME280;12910;57.690;11.974;2022-10-16T08:56:08;99688.81;;;12.28;100.00
24825;BME280;12910;57.690;11.974;2022-10-16T08:58:33;99691.28;;;12.39;100.00
24825;BME280;12910;57.690;11.974;2022-10-16T09:01:01;99704.97;;;12.44;100.00
24825;BME280;12910;57.690;11.974;2022-10-16T09:09:28;99706.63;;;12.52;100.00
24825;BME280;12910;57.690;11.974;2022-10-16T09:12:01;99715.19;;;12.54;100.00
24825;BME280;12910;57.690;11.974;2022-10-16T09:17:22;99711.84;;;12.45;100.00
24825;BME280;12910;57.690;11.974;2022-10-16T09:22:32;99696.41;;;12.41;100.00
24825;BME280;12910;57.690;11.974;2022-10-16T09:25:10;99705.88;;;12.36;100.00
24825;BME280;12910;57.690;11.974;2022-10-16T09:27:37;99699.06;;;12.27;100.00
24825;BME280;12910;57.690;11.974;2022-10-16T09:30:14;99703.34;;;12.31;100.00
24825;BME280;12910;57.690;11.974;2022-10-16T09:32:41;99705.91;;;12.34;100.00
24825;BME280;12910;57.690;11.974;2022-10-16T09:35:17;99708.47;;;12.34;100.00
24825;BME280;12910;57.690;11.974;2022-10-16T09:37:45;99681.13;;;12.24;100.00
24825;BME280;12910;57.690;11.974;2022-10-16T09:40:36;99684.53;;;12.26;100.00
24825;BME280;12910;57.690;11.974;2022-10-16T09:46:09;99698.97;;;12.41;100.00
24825;BME280;12910;57.690;11.974;2022-10-16T09:48:48;99701.56;;;12.42;100.00
24825;BME280;12910;57.690;11.974;2022-10-16T09:51:21;99698.09;;;12.46;100.00
24825;BME280;12910;57.690;11.974;2022-10-16T09:53:48;99698.09;;;12.50;100.00
24825;BME280;12910;57.690;11.974;2022-10-16T09:56:25;99690.34;;;12.54;100.00
24825;BME280;12910;57.690;11.974;2022-10-16T09:58:53;99665.50;;;12.53;100.00
24825;BME280;12910;57.690;11.974;2022-10-16T10:01:20;99660.31;;;12.58;100.00
24825;BME280;12910;57.690;11.974;2022-10-16T10:03:46;99653.47;;;12.60;100.00
24825;BME280;12910;57.690;11.974;2022-10-16T10:06:23;99646.53;;;12.65;100.00
24825;BME280;12910;57.690;11.974;2022-10-16T10:09:17;99635.41;;;12.66;100.00
24825;BME280;12910;57.690;11.974;2022-10-16T10:17:01;99629.31;;;12.76;100.00
24825;BME280;12910;57.690;11.974;2022-10-16T10:19:27;99623.28;;;12.81;100.00
24825;BME280;12910;57.690;11.974;2022-10-16T10:21:52;99619.84;;;12.83;100.00
24825;BME280;12910;57.690;11.974;2022-10-16T10:24:19;99612.16;;;12.82;100.00
24825;BME280;12910;57.690;11.974;2022-10-16T10:34:32;99613.91;;;12.78;100.00
24825;BME280;12910;57.690;11.974;2022-10-16T10:42:48;99625.97;;;12.68;100.00
24825;BME280;12910;57.690;11.974;2022-10-16T10:45:27;99623.44;;;12.63;100.00
24825;BME280;12910;57.690;11.974;2022-10-16T11:01:12;99667.31;;;12.40;100.00
24825;BME280;12910;57.690;11.974;2022-10-16T11:09:23;99675.00;;;12.43;100.00
24825;BME280;12910;57.690;11.974;2022-10-16T11:11:54;99687.81;;;12.50;100.00
24825;BME280;12910;57.690;11.974;2022-10-16T11:14:42;99686.13;;;12.45;100.00
24825;BME280;12910;57.690;11.974;2022-10-16T11:20:33;99672.38;;;12.50;100.00
24825;BME280;12910;57.690;11.974;2022-10-16T11:23:07;99676.63;;;12.58;100.00
24825;BME280;12910;57.690;11.974;2022-10-16T11:25:36;99670.56;;;12.64;100.00
24825;BME280;12910;57.690;11.974;2022-10-16T11:28:20;99682.53;;;12.65;100.00
24825;BME280;12910;57.690;11.974;2022-10-16T11:33:40;99660.31;;;12.58;100.00
24825;BME280;12910;57.690;11.974;2022-10-16T11:41:47;99666.34;;;12.58;100.00
24825;BME280;12910;57.690;11.974;2022-10-16T11:49:43;99644.16;;;12.45;100.00
24825;BME280;12910;57.690;11.974;2022-10-16T11:52:40;99647.59;;;12.39;100.00
24825;BME280;12910;57.690;11.974;2022-10-16T11:55:20;99634.78;;;12.36;100.00
24825;BME280;12910;57.690;11.974;2022-10-16T11:57:50;99605.72;;;12.28;100.00
24825;BME280;12910;57.690;11.974;2022-10-16T12:00:27;99685.34;;;12.31;100.00
24825;BME280;12910;57.690;11.974;2022-10-16T12:03:15;99710.28;;;12.07;100.00
24825;BME280;12910;57.690;11.974;2022-10-16T12:06:11;99701.06;;;11.58;100.00
24825;BME280;12910;57.690;11.974;2022-10-16T12:08:39;99648.09;;;11.29;100.00
24825;BME280;12910;57.690;11.974;2022-10-16T12:13:48;99639.63;;;10.81;100.00
24825;BME280;12910;57.690;11.974;2022-10-16T12:18:46;99649.03;;;10.62;100.00
24825;BME280;12910;57.690;11.974;2022-10-16T12:21:13;99651.59;;;10.60;100.00
24825;BME280;12910;57.690;11.974;2022-10-16T12:23:51;99662.72;;;10.51;100.00
24825;BME280;12910;57.690;11.974;2022-10-16T12:26:28;99660.13;;;10.51;100.00
24825;BME280;12910;57.690;11.974;2022-10-16T12:28:55;99650.75;;;10.50;100.00
24825;BME280;12910;57.690;11.974;2022-10-16T12:31:20;99655.88;;;10.50;100.00
24825;BME280;12910;57.690;11.974;2022-10-16T12:34:01;99663.53;;;10.53;100.00
24825;BME280;12910;57.690;11.974;2022-10-16T12:36:30;99673.81;;;10.55;100.00
24825;BME280;12910;57.690;11.974;2022-10-16T12:38:57;99676.34;;;10.56;100.00
24825;BME280;12910;57.690;11.974;2022-10-16T12:41:41;99700.31;;;10.71;100.00
24825;BME280;12910;57.690;11.974;2022-10-16T12:44:23;99696.03;;;10.85;100.00
24825;BME280;12910;57.690;11.974;2022-10-16T12:46:49;99694.31;;;10.97;100.00
24825;BME280;12910;57.690;11.974;2022-10-16T12:49:28;99692.59;;;11.02;100.00
24825;BME280;12910;57.690;11.974;2022-10-16T12:51:55;99719.09;;;11.16;100.00
24825;BME280;12910;57.690;11.974;2022-10-16T12:54:36;99727.63;;;11.23;100.00
24825;BME280;12910;57.690;11.974;2022-10-16T12:57:25;99704.56;;;11.14;100.00
24825;BME280;12910;57.690;11.974;2022-10-16T13:00:26;99722.50;;;11.28;100.00
24825;BME280;12910;57.690;11.974;2022-10-16T13:03:04;99730.19;;;11.34;100.00
24825;BME280;12910;57.690;11.974;2022-10-16T13:11:28;99693.38;;;11.44;100.00
24825;BME280;12910;57.690;11.974;2022-10-16T13:16:49;99684.78;;;11.61;100.00
24825;BME280;12910;57.690;11.974;2022-10-16T13:22:31;99687.31;;;11.70;100.00
24825;BME280;12910;57.690;11.974;2022-10-16T13:27:51;99703.56;;;11.75;100.00
24825;BME280;12910;57.690;11.974;2022-10-16T13:30:22;99707.00;;;11.77;100.00
24825;BME280;12910;57.690;11.974;2022-10-16T13:32:51;99687.31;;;11.70;100.00
24825;BME280;12910;57.690;11.974;2022-10-16T13:35:22;99706.91;;;11.90;100.00
24825;BME280;12910;57.690;11.974;2022-10-16T13:37:48;99718.06;;;11.92;100.00
24825;BME280;12910;57.690;11.974;2022-10-16T13:40:20;99720.59;;;12.04;100.00
24825;BME280;12910;57.690;11.974;2022-10-16T13:42:46;99717.19;;;12.05;100.00
24825;BME280;12910;57.690;11.974;2022-10-16T13:45:23;99735.97;;;12.13;100.00
24825;BME280;12910;57.690;11.974;2022-10-16T13:48:00;99724.88;;;12.10;100.00
24825;BME280;12910;57.690;11.974;2022-10-16T13:50:26;99724.03;;;12.06;100.00
24825;BME280;12910;57.690;11.974;2022-10-16T13:52:51;99725.69;;;12.12;100.00
24825;BME280;12910;57.690;11.974;2022-10-16T13:55:18;99727.44;;;12.05;100.00
24825;BME280;12910;57.690;11.974;2022-10-16T13:57:44;99746.28;;;12.04;100.00
24825;BME280;12910;57.690;11.974;2022-10-16T14:00:24;99737.72;;;11.96;100.00
24825;BME280;12910;57.690;11.974;2022-10-16T14:02:58;99744.56;;;12.03;100.00
24825;BME280;12910;57.690;11.974;2022-10-16T14:05:26;99736.84;;;12.05;100.00
24825;BME280;12910;57.690;11.974;2022-10-16T14:07:53;99756.53;;;12.10;100.00
24825;BME280;12910;57.690;11.974;2022-10-16T14:10:25;99746.28;;;12.09;100.00
24825;BME280;12910;57.690;11.974;2022-10-16T14:13:20;99753.03;;;12.22;100.00
24825;BME280;12910;57.690;11.974;2022-10-16T14:15:51;99753.09;;;12.14;100.00
24825;BME280;12910;57.690;11.974;2022-10-16T14:18:23;99778.75;;;12.21;100.00
24825;BME280;12910;57.690;11.974;2022-10-16T14:20:50;99781.31;;;12.18;100.00
24825;BME280;12910;57.690;11.974;2022-10-16T14:23:30;99769.38;;;12.17;100.00
24825;BME280;12910;57.690;11.974;2022-10-16T14:28:36;99788.16;;;12.22;100.00
24825;BME280;12910;57.690;11.974;2022-10-16T14:31:16;99783.88;;;12.21;100.00
24825;BME280;12910;57.690;11.974;2022-10-16T14:33:45;99792.47;;;12.12;100.00
24825;BME280;12910;57.690;11.974;2022-10-16T14:36:14;99804.47;;;12.14;100.00
24825;BME280;12910;57.690;11.974;2022-10-16T14:39:05;99808.75;;;12.17;100.00
24825;BME280;12910;57.690;11.974;2022-10-16T14:41:33;99807.91;;;12.13;100.00